Newburgh, New York
Current Conditions -  °F | °C
As of 8:45 AM on Wednesday 22 Oct 2014 (Local Time) from KSWF Reporting Station
Overcast Overcast  
Wind Chill: 50°   Ceiling: 700
Heat Index: 50°   Visibility: 10mi
Dew Point: 48°   Wind: 12mph
Humidity: 94%   Direction: 20°NNE
Pressure: 30"   Gusts: NA
Location:  41.5°N, 74.01°W
Report Text: KSWF 221245Z 02010KT 10SM OVC007 10/09 A3000
Loading
Personal Weather Stations






























Interactive Weather Map
Tropical Storm Tracking
New forecast layout! Learn more

10-Day Weather Forecast

Advertisements
Track Severe Weather on mobile